メインページ
METAR-TAF:

METAR-TAF

空港 :

百里飛行場, 日本

緯度: 36-11N, 経度: 140-25E, 海抜: 32m

現時点の気象観測

当レポートは1時間11分前の11:00(UTC)に作成
の風 4kt
気温 16°C
湿度 94%
気圧 1011 hPa
視程10km以上
高度2000ftの雲はほとんどない
高度5000ftの千切れ雲あり
曇り

METAR: RJAH 161100Z 01004KT 9999 FEW020 BKN050 OVC/// 16/15 Q1011

時間: 21:11 (12:11 UTC)

予報

当レポートは1時間2分前の11:09(UTC)に作成
予報は16日の 12時(UTC)から 17日の 18時(UTC)まで有効
の風 6kt
視程10km以上
高度2000ftの雲はほとんどない
高度4000ftの雲は散在している
17日の 03時(UTC)から 17日の 06時(UTC)まで徐々に
東/北東の風 12kt
17日の 12時(UTC)から 17日の 15時(UTC)まで徐々に
の風 8kt

TAF: RJAH 161109Z 1612/1718 36006KT 9999 FEW020 SCT040 BECMG 1703/1706 06012KT BECMG 1712/1715 36008KT

4,000以上の空港の気象観測と天気予報(METAR報とTAF報)

利用可能な観測所は地図上に黄色い丸と赤い丸で示す。

丸の上にカーソルを重ねると観測所名を参照できる。

次にクリックすると気象観測と天気予報を参照できる。

マップの切り替え:黒色「×」印の緑ボタンをクリックして拡大、「-」印の緑ボタンをクリックして縮小、緑色の三角印をクリックして隣りの地図に切り替え


METAR-TAF: